Time;durP1;ratioP1;P1;durP2;ratioP2;P2;SDS_P1;SDS_P2;PMS_P1;PMS_P2;Temp;Humidity;BMP_temperature;BMP_pressure;BME280_temperature;BME280_humidity;BME280_pressure;Samples;Min_cycle;Max_cycle;Signal;HPM_P1;HPM_P2
2022/03/23 00:01:59;;;;;;;34.50;17.97;;;9.80;22.30;;;;;;4993029;28;20650;-72
2022/03/23 00:04:24;;;;;;;40.43;18.43;;;9.80;22.30;;;;;;4974145;28;20181;-72
2022/03/23 00:06:50;;;;;;;50.73;19.47;;;9.60;22.60;;;;;;4975671;28;20359;-73
2022/03/23 00:09:16;;;;;;;29.57;16.10;;;9.60;23.50;;;;;;4994377;28;20649;-72
2022/03/23 00:11:42;;;;;;;29.97;17.10;;;9.40;22.00;;;;;;4993333;28;20174;-72
2022/03/23 00:14:09;;;;;;;31.83;16.52;;;9.70;20.70;;;;;;4992857;28;20598;-72
2022/03/23 00:16:37;;;;;;;32.47;17.73;;;9.90;20.00;;;;;;4993471;28;20217;-72
2022/03/23 00:19:04;;;;;;;32.45;17.80;;;10.00;19.70;;;;;;4993154;28;20203;-72
2022/03/23 00:21:30;;;;;;;35.88;18.80;;;9.50;22.80;;;;;;4993262;28;20313;-72
2022/03/23 00:23:56;;;;;;;31.17;17.00;;;9.60;21.70;;;;;;4993273;28;20256;-73
2022/03/23 00:26:22;;;;;;;29.75;17.95;;;9.80;20.60;;;;;;4993418;28;20919;-73
2022/03/23 00:28:48;;;;;;;35.27;18.53;;;9.80;20.60;;;;;;4992614;28;20217;-73
2022/03/23 00:31:14;;;;;;;36.45;19.92;;;9.90;20.30;;;;;;4993513;28;20189;-73
2022/03/23 00:33:40;;;;;;;33.40;18.20;;;9.90;22.50;;;;;;4992960;28;20549;-72
2022/03/23 00:36:06;;;;;;;31.80;17.00;;;9.40;21.90;;;;;;4992643;28;20429;-72
2022/03/23 00:38:32;;;;;;;34.72;18.75;;;9.70;20.40;;;;;;4993013;28;20198;-72
2022/03/23 00:40:58;;;;;;;44.10;19.10;;;9.70;22.70;;;;;;4992766;28;20221;-72
2022/03/23 00:43:24;;;;;;;32.40;17.87;;;9.90;22.70;;;;;;4992425;28;20432;-72
2022/03/23 00:45:50;;;;;;;41.20;19.10;;;9.10;22.60;;;;;;4992721;28;20189;-72
2022/03/23 00:48:15;;;;;;;36.30;20.80;;;9.00;22.70;;;;;;4992797;28;20218;-71
2022/03/23 00:50:42;;;;;;;45.93;21.13;;;8.90;23.40;;;;;;4992880;28;20179;-71
2022/03/23 00:53:07;;;;;;;41.80;20.58;;;9.10;24.00;;;;;;4988212;28;20582;-72
2022/03/23 00:55:33;;;;;;;37.97;21.97;;;7.80;24.50;;;;;;4991707;28;20196;-70
2022/03/23 00:57:59;;;;;;;38.90;22.00;;;7.70;25.80;;;;;;4992457;28;20201;-72
2022/03/23 01:00:25;;;;;;;37.13;21.23;;;8.10;25.40;;;;;;4992947;28;20189;-72
2022/03/23 01:02:50;;;;;;;39.63;21.90;;;8.20;25.50;;;;;;4992581;28;20420;-73
2022/03/23 01:05:16;;;;;;;39.40;20.50;;;8.40;25.40;;;;;;4992202;28;20180;-72
2022/03/23 01:07:43;;;;;;;38.20;21.60;;;8.30;25.60;;;;;;4992458;28;20213;-72
2022/03/23 01:10:12;;;;;;;41.75;21.88;;;8.50;25.30;;;;;;4992826;28;21113;-72
2022/03/23 01:12:48;;;;;;;38.70;21.30;;;8.50;25.80;;;;;;4992193;28;20183;-72
2022/03/23 01:15:19;;;;;;;39.65;21.83;;;8.50;24.60;;;;;;4992319;28;20530;-72
2022/03/23 01:17:45;;;;;;;41.38;22.65;;;8.30;25.70;;;;;;4991675;28;20186;-72
2022/03/23 01:20:14;;;;;;;42.30;22.40;;;8.30;26.00;;;;;;4992822;28;20630;-72
2022/03/23 01:22:41;;;;;;;36.30;21.25;;;8.20;25.90;;;;;;4993502;28;20193;-72
2022/03/23 01:25:08;;;;;;;41.83;22.38;;;8.10;26.50;;;;;;4993180;28;20182;-72
2022/03/23 01:27:34;;;;;;;44.55;22.88;;;8.00;26.30;;;;;;4992904;28;20695;-73
2022/03/23 01:30:01;;;;;;;48.13;23.30;;;7.90;26.00;;;;;;4993424;28;20178;-70
2022/03/23 01:32:26;;;;;;;42.58;22.27;;;8.00;26.40;;;;;;4993416;28;20178;-73
2022/03/23 01:34:52;;;;;;;38.00;22.37;;;8.00;26.60;;;;;;4992055;28;20545;-72
2022/03/23 01:37:18;;;;;;;65.03;22.47;;;8.00;26.10;;;;;;4991493;28;20178;-71
2022/03/23 01:39:44;;;;;;;43.27;23.23;;;8.10;25.20;;;;;;4991996;28;20281;-72
2022/03/23 01:42:09;;;;;;;39.97;22.50;;;7.90;25.90;;;;;;4991723;28;20598;-72
2022/03/23 01:44:35;;;;;;;36.53;20.57;;;8.00;26.10;;;;;;4991761;28;20594;-72
2022/03/23 01:47:08;;;;;;;37.33;21.47;;;8.00;25.40;;;;;;4991464;28;20198;-71
2022/03/23 01:50:05;;;;;;;48.13;21.00;;;8.00;25.60;;;;;;4991603;28;20280;-71
2022/03/23 01:52:32;;;;;;;44.15;21.60;;;7.90;25.40;;;;;;4990778;28;20198;-72
2022/03/23 01:55:00;;;;;;;39.08;20.13;;;7.70;26.10;;;;;;4991707;28;20174;-72
2022/03/23 01:57:26;;;;;;;48.03;20.00;;;7.70;26.20;;;;;;4991841;28;20728;-76
2022/03/23 01:59:52;;;;;;;37.42;19.40;;;7.60;25.90;;;;;;4977015;28;20209;-72
2022/03/23 02:02:18;;;;;;;33.07;18.90;;;7.70;25.90;;;;;;4992065;28;20593;-72
2022/03/23 02:04:44;;;;;;;61.07;20.40;;;7.60;26.40;;;;;;4991216;28;20699;-72
2022/03/23 02:07:10;;;;;;;35.10;19.23;;;8.00;24.90;;;;;;4991842;28;20469;-72
2022/03/23 02:09:36;;;;;;;39.97;20.17;;;7.90;24.80;;;;;;4991511;28;20968;-72
2022/03/23 02:12:05;;;;;;;45.70;20.25;;;8.20;24.00;;;;;;4991269;28;20209;-72
2022/03/23 02:14:31;;;;;;;40.50;21.17;;;8.20;24.90;;;;;;4991509;28;20181;-72
2022/03/23 02:16:56;;;;;;;45.60;21.88;;;8.50;24.80;;;;;;4991810;28;20181;-72
2022/03/23 02:19:22;;;;;;;36.70;19.90;;;8.20;24.60;;;;;;4991325;28;20218;-72
2022/03/23 02:21:49;;;;;;;38.77;21.50;;;7.80;24.90;;;;;;4991172;28;20189;-72
2022/03/23 02:24:16;;;;;;;47.05;21.60;;;7.90;24.60;;;;;;4992030;28;20324;-72
2022/03/23 02:26:42;;;;;;;40.35;20.88;;;8.20;24.20;;;;;;4991677;28;20179;-71
2022/03/23 02:29:08;;;;;;;38.08;21.20;;;8.40;24.10;;;;;;4993060;28;20200;-72
2022/03/23 02:31:35;;;;;;;38.30;20.80;;;7.90;25.80;;;;;;4995515;28;20178;-72
2022/03/23 02:34:01;;;;;;;40.55;20.17;;;7.90;24.50;;;;;;4995150;28;20405;-72
2022/03/23 02:36:27;;;;;;;39.33;20.52;;;8.20;23.60;;;;;;4995609;28;20545;-72
2022/03/23 02:38:53;;;;;;;34.70;19.90;;;8.30;23.60;;;;;;4995329;28;20209;-73
2022/03/23 02:41:18;;;;;;;45.23;19.20;;;8.30;23.40;;;;;;4994670;28;20200;-72
2022/03/23 02:43:44;;;;;;;42.70;19.83;;;8.30;23.80;;;;;;4995122;28;20436;-70
2022/03/23 02:46:14;;;;;;;40.57;20.83;;;8.20;24.20;;;;;;4995322;28;20468;-71
2022/03/23 02:48:40;;;;;;;35.30;18.98;;;8.00;25.40;;;;;;4995077;28;20460;-71
2022/03/23 02:51:06;;;;;;;34.95;19.30;;;8.10;25.00;;;;;;4994933;28;20191;-72
2022/03/23 03:02:36;;;;;;;34.30;18.88;;;7.30;26.40;;;;;;4993175;28;20192;-71
2022/03/23 03:05:07;;;;;;;39.55;19.77;;;7.20;26.70;;;;;;4993034;28;20177;-71
2022/03/23 03:10:22;;;;;;;37.92;18.10;;;7.30;27.70;;;;;;4995003;28;20213;-73
2022/03/23 03:12:50;;;;;;;36.40;18.05;;;7.40;25.10;;;;;;4994578;28;20171;-72
2022/03/23 03:15:17;;;;;;;36.58;17.30;;;7.60;24.40;;;;;;4994220;28;20193;-71
2022/03/23 03:17:42;;;;;;;44.22;17.63;;;7.70;24.30;;;;;;4994360;28;20216;-70
2022/03/23 03:20:09;;;;;;;39.07;17.30;;;7.60;24.10;;;;;;4994701;28;20174;-72
2022/03/23 03:22:38;;;;;;;36.40;18.55;;;7.50;24.80;;;;;;4994365;28;20182;-72
2022/03/23 03:25:05;;;;;;;32.15;18.00;;;7.50;24.60;;;;;;4994297;28;20197;-72
2022/03/23 03:27:35;;;;;;;28.88;18.00;;;7.70;24.60;;;;;;4994567;28;20205;-71
2022/03/23 03:30:04;;;;;;;41.75;20.77;;;7.70;24.50;;;;;;4994756;28;20170;-72
2022/03/23 03:32:31;;;;;;;41.47;20.48;;;7.40;24.80;;;;;;4994625;28;20205;-73
2022/03/23 03:34:56;;;;;;;40.35;19.60;;;7.30;25.70;;;;;;4993661;28;20232;-72
2022/03/23 03:37:22;;;;;;;38.53;20.70;;;7.10;26.90;;;;;;4993941;28;20178;-72
2022/03/23 03:39:48;;;;;;;39.53;20.20;;;7.10;27.50;;;;;;4994397;28;20804;-72
2022/03/23 03:42:14;;;;;;;39.63;21.70;;;7.10;27.00;;;;;;4994052;28;20186;-71
2022/03/23 03:44:39;;;;;;;36.67;20.98;;;7.10;26.70;;;;;;4993961;28;20182;-71
2022/03/23 03:47:05;;;;;;;36.30;20.70;;;7.20;26.30;;;;;;4993675;28;20770;-68
2022/03/23 03:49:31;;;;;;;43.67;21.35;;;6.80;27.50;;;;;;4994089;28;20197;-71
2022/03/23 03:51:58;;;;;;;53.33;20.87;;;6.80;27.00;;;;;;4994019;28;20182;-72
2022/03/23 03:54:24;;;;;;;42.40;22.38;;;6.90;26.70;;;;;;4993534;28;20178;-71
2022/03/23 03:56:50;;;;;;;41.40;22.47;;;6.60;27.30;;;;;;4993739;28;20193;-72
2022/03/23 03:59:15;;;;;;;42.33;22.30;;;6.50;27.60;;;;;;4993972;28;20452;-70
2022/03/23 04:01:41;;;;;;;43.40;23.57;;;6.50;27.80;;;;;;4993724;28;20588;-72
2022/03/23 04:04:07;;;;;;;40.90;21.10;;;6.70;28.30;;;;;;4993777;28;20649;-71
2022/03/23 04:06:33;;;;;;;45.40;21.40;;;7.00;27.60;;;;;;4993670;28;20428;-72
2022/03/23 04:08:58;;;;;;;54.47;21.33;;;6.80;26.50;;;;;;4993733;28;20285;-71
2022/03/23 04:11:24;;;;;;;42.50;23.13;;;6.60;27.20;;;;;;4993817;28;20537;-71
2022/03/23 04:13:50;;;;;;;42.27;21.10;;;6.60;29.00;;;;;;4993524;28;20166;-72
2022/03/23 04:16:15;;;;;;;38.33;21.80;;;6.70;27.20;;;;;;4993248;28;20178;-71
2022/03/23 04:18:41;;;;;;;40.27;22.10;;;6.90;26.50;;;;;;4993231;28;20213;-72
2022/03/23 04:21:07;;;;;;;36.00;20.37;;;6.90;26.90;;;;;;4993782;28;20185;-77
2022/03/23 04:23:33;;;;;;;38.77;21.87;;;6.50;27.00;;;;;;4993962;28;20185;-71
2022/03/23 04:25:59;;;;;;;46.85;22.25;;;6.30;28.30;;;;;;4993609;28;20205;-72
2022/03/23 04:28:25;;;;;;;36.20;20.10;;;6.20;28.00;;;;;;4993201;28;20601;-72
2022/03/23 04:30:51;;;;;;;48.13;20.97;;;6.40;28.50;;;;;;4992901;28;20266;-71
2022/03/23 04:33:17;;;;;;;43.10;20.77;;;6.20;28.80;;;;;;4993184;28;20174;-71
2022/03/23 04:35:42;;;;;;;44.93;21.33;;;6.20;29.20;;;;;;4993141;28;20432;-71
2022/03/23 04:38:08;;;;;;;36.20;19.37;;;6.30;28.50;;;;;;4993219;28;20201;-72
2022/03/23 04:40:34;;;;;;;35.90;20.33;;;6.90;26.30;;;;;;4992764;28;20265;-71
2022/03/23 04:42:59;;;;;;;35.03;19.47;;;6.50;27.60;;;;;;4993253;28;20440;-71
2022/03/23 04:45:25;;;;;;;39.70;21.37;;;6.40;27.40;;;;;;4992540;28;20193;-71
2022/03/23 04:47:51;;;;;;;40.47;21.03;;;6.30;27.70;;;;;;4992718;28;20208;-72
2022/03/23 04:50:18;;;;;;;36.90;20.92;;;6.40;27.00;;;;;;4992433;28;20178;-71
2022/03/23 04:52:46;;;;;;;43.08;22.05;;;6.70;27.10;;;;;;4992227;28;20166;-70
2022/03/23 04:55:13;;;;;;;42.53;21.65;;;6.30;27.30;;;;;;4992569;28;20257;-72
2022/03/23 04:57:40;;;;;;;42.42;21.67;;;6.40;28.00;;;;;;4992916;28;20178;-69
2022/03/23 05:00:15;;;;;;;37.47;20.45;;;6.70;27.20;;;;;;4992732;28;20210;-71
2022/03/23 05:02:42;;;;;;;38.35;20.08;;;6.50;26.60;;;;;;4992596;28;20178;-72
2022/03/23 05:05:11;;;;;;;35.50;19.98;;;6.80;26.00;;;;;;4992500;28;20178;-71
2022/03/23 05:07:37;;;;;;;46.28;21.02;;;6.80;26.10;;;;;;4991379;28;20209;-71
2022/03/23 05:10:04;;;;;;;44.00;22.40;;;6.60;27.50;;;;;;4992144;28;20197;-70
2022/03/23 05:12:29;;;;;;;38.13;21.17;;;6.50;27.40;;;;;;4992060;28;20185;-71
2022/03/23 05:14:55;;;;;;;37.10;20.33;;;6.30;27.40;;;;;;4992327;28;20182;-69
2022/03/23 05:17:21;;;;;;;41.27;21.73;;;6.00;28.40;;;;;;4992505;28;20276;-72
2022/03/23 05:19:46;;;;;;;42.30;20.47;;;5.80;28.80;;;;;;4992237;28;20213;-72
2022/03/23 05:22:12;;;;;;;38.17;21.37;;;5.90;28.80;;;;;;4992362;28;20182;-71
2022/03/23 05:24:39;;;;;;;39.70;20.70;;;5.80;28.90;;;;;;4991879;28;20177;-71
2022/03/23 05:27:06;;;;;;;39.90;21.52;;;5.80;28.50;;;;;;4992207;28;20551;-71
2022/03/23 05:29:32;;;;;;;44.42;22.17;;;5.80;28.40;;;;;;4992252;28;20198;-71
2022/03/23 05:31:58;;;;;;;43.80;21.52;;;6.20;27.70;;;;;;4992103;28;20232;-74
2022/03/23 05:34:24;;;;;;;45.13;21.75;;;6.20;28.70;;;;;;4988549;28;20260;-72
2022/03/23 05:36:50;;;;;;;50.13;20.35;;;6.20;28.50;;;;;;4992005;28;20173;-71
2022/03/23 05:39:16;;;;;;;38.83;21.83;;;6.20;29.40;;;;;;4990596;28;20566;-72
2022/03/23 05:41:42;;;;;;;67.93;22.83;;;6.70;28.20;;;;;;4991559;28;20453;-70
2022/03/23 05:44:08;;;;;;;37.53;20.33;;;6.40;28.00;;;;;;4991254;28;20178;-70
2022/03/23 05:46:34;;;;;;;42.37;21.33;;;6.70;28.00;;;;;;4991944;28;20409;-71
2022/03/23 05:48:59;;;;;;;54.15;22.02;;;6.80;28.20;;;;;;4989785;28;20209;-71
2022/03/23 05:51:25;;;;;;;46.00;22.60;;;6.60;27.00;;;;;;4989907;28;20190;-71
2022/03/23 05:53:51;;;;;;;38.73;20.93;;;6.80;26.40;;;;;;4990726;28;20409;-71
2022/03/23 05:56:17;;;;;;;38.77;20.53;;;7.20;26.70;;;;;;4991445;28;20166;-71
2022/03/23 05:58:43;;;;;;;45.63;21.40;;;7.00;26.40;;;;;;4991663;28;20237;-71
2022/03/23 06:01:08;;;;;;;42.03;22.02;;;6.80;26.80;;;;;;4992048;28;20492;-70
2022/03/23 06:03:35;;;;;;;41.90;21.10;;;6.70;27.50;;;;;;4991366;28;20253;-70
2022/03/23 06:06:01;;;;;;;43.92;21.60;;;6.50;28.70;;;;;;4995786;28;20599;-69
2022/03/23 06:08:27;;;;;;;43.05;22.45;;;6.50;28.70;;;;;;4995840;28;20210;-70
2022/03/23 06:10:53;;;;;;;43.13;22.23;;;6.60;29.20;;;;;;4995821;28;20528;-69
2022/03/23 06:13:18;;;;;;;43.03;20.80;;;6.60;28.60;;;;;;4994840;28;20483;-71
2022/03/23 06:15:46;;;;;;;41.90;21.27;;;6.70;28.00;;;;;;4996018;28;20224;-71
2022/03/23 06:18:11;;;;;;;39.83;21.48;;;6.60;28.00;;;;;;4995389;28;20523;-71
2022/03/23 06:20:38;;;;;;;44.47;22.50;;;6.70;28.00;;;;;;4995735;28;20178;-71
2022/03/23 06:23:03;;;;;;;41.03;22.48;;;6.70;27.40;;;;;;4995016;28;20606;-71
2022/03/23 06:25:29;;;;;;;50.90;25.10;;;6.70;27.40;;;;;;4995606;28;20276;-68
2022/03/23 06:27:55;;;;;;;39.60;21.20;;;6.90;27.10;;;;;;4995460;28;20252;-71
2022/03/23 06:30:20;;;;;;;68.60;22.17;;;6.80;26.90;;;;;;4995574;28;20267;-71
2022/03/23 06:32:46;;;;;;;64.27;21.13;;;7.20;27.40;;;;;;4997135;28;20173;-71
2022/03/23 06:35:12;;;;;;;43.92;21.52;;;6.90;26.80;;;;;;4995484;28;20197;-71
2022/03/23 06:37:38;;;;;;;35.67;20.37;;;6.60;26.90;;;;;;4995255;28;20199;-70
2022/03/23 06:40:05;;;;;;;43.27;21.80;;;6.60;26.80;;;;;;4995809;28;20193;-71
2022/03/23 06:42:31;;;;;;;46.58;21.48;;;6.80;26.60;;;;;;4998376;28;20189;-78
2022/03/23 06:44:57;;;;;;;44.57;22.97;;;6.90;26.70;;;;;;4995129;28;20185;-78
2022/03/23 06:47:22;;;;;;;42.67;20.50;;;7.10;26.20;;;;;;4995528;28;20456;-78
2022/03/23 06:49:48;;;;;;;44.10;20.70;;;6.90;26.10;;;;;;4991169;28;20425;-77
2022/03/23 06:52:15;;;;;;;40.63;21.43;;;7.60;24.80;;;;;;4989301;28;20178;-77
2022/03/23 06:54:41;;;;;;;54.78;23.05;;;8.10;24.50;;;;;;4994893;28;20166;-77
2022/03/23 06:57:07;;;;;;;39.20;21.25;;;8.20;24.60;;;;;;4993969;28;20193;-77
2022/03/23 06:59:33;;;;;;;63.57;31.40;;;8.50;24.20;;;;;;4991832;28;20197;-77
2022/03/23 07:01:58;;;;;;;50.93;25.13;;;8.60;23.40;;;;;;4995038;28;20279;-76
2022/03/23 07:04:27;;;;;;;57.33;25.63;;;8.50;24.70;;;;;;4993624;28;20555;-68
2022/03/23 07:06:53;;;;;;;49.50;24.48;;;8.40;24.40;;;;;;4994074;28;20641;-69
2022/03/23 07:09:31;;;;;;;51.45;24.17;;;8.50;24.40;;;;;;4994077;28;20210;-69
2022/03/23 07:11:58;;;;;;;52.50;25.95;;;8.80;24.10;;;;;;4993549;28;20182;-70
2022/03/23 07:14:23;;;;;;;59.67;23.35;;;8.90;24.30;;;;;;4993954;28;20177;-69
2022/03/23 07:16:49;;;;;;;51.33;27.20;;;9.10;23.40;;;;;;4993340;28;20238;-69
2022/03/23 07:19:15;;;;;;;60.83;30.47;;;9.30;23.60;;;;;;4994020;28;20206;-70
2022/03/23 07:21:40;;;;;;;42.33;22.47;;;9.50;23.30;;;;;;4994063;28;20178;-69
2022/03/23 07:24:07;;;;;;;62.77;26.30;;;9.70;22.40;;;;;;5006647;28;20176;-69
2022/03/23 07:26:33;;;;;;;56.20;26.85;;;9.90;22.20;;;;;;5012907;28;20564;-69
2022/03/23 07:28:58;;;;;;;48.80;25.23;;;9.70;22.20;;;;;;5002424;28;20229;-70
2022/03/23 07:31:24;;;;;;;37.37;21.60;;;9.10;22.70;;;;;;4993604;28;20171;-69
2022/03/23 07:33:50;;;;;;;48.00;21.63;;;8.50;23.20;;;;;;4993712;28;20179;-69
2022/03/23 07:36:16;;;;;;;37.50;21.00;;;8.50;24.60;;;;;;4993644;28;20188;-69
2022/03/23 07:38:42;;;;;;;40.07;22.07;;;8.30;23.90;;;;;;4993936;28;20225;-70
2022/03/23 07:41:07;;;;;;;42.77;23.13;;;8.10;23.90;;;;;;4993643;28;20920;-69
2022/03/23 07:43:33;;;;;;;44.40;22.30;;;8.10;24.90;;;;;;4993315;28;20421;-70
2022/03/23 07:45:58;;;;;;;51.27;23.53;;;8.20;25.30;;;;;;4993657;28;20244;-70
2022/03/23 07:48:24;;;;;;;47.90;24.90;;;8.20;25.00;;;;;;4992530;28;20213;-70
2022/03/23 07:50:51;;;;;;;40.57;23.00;;;8.50;25.50;;;;;;4993629;28;20183;-70
2022/03/23 07:53:17;;;;;;;43.78;23.02;;;8.60;24.20;;;;;;4996446;28;20186;-70
2022/03/23 07:55:43;;;;;;;45.38;23.33;;;8.60;24.50;;;;;;5009663;28;20173;-70
2022/03/23 07:58:08;;;;;;;55.27;26.30;;;9.10;24.00;;;;;;5010590;28;20218;-70
2022/03/23 08:00:35;;;;;;;54.47;24.60;;;9.30;23.90;;;;;;4993182;28;20557;-70
2022/03/23 08:03:00;;;;;;;52.78;24.92;;;9.30;23.40;;;;;;4993413;28;20560;-70
2022/03/23 08:05:26;;;;;;;40.90;22.57;;;9.10;24.10;;;;;;4993127;28;20178;-70
2022/03/23 08:07:52;;;;;;;42.85;24.70;;;9.40;24.10;;;;;;4991495;28;20255;-70
2022/03/23 08:10:18;;;;;;;48.23;25.13;;;9.50;23.20;;;;;;4993146;28;20186;-71
2022/03/23 08:12:43;;;;;;;58.03;25.23;;;9.50;23.20;;;;;;4992716;28;20182;-70
2022/03/23 08:15:09;;;;;;;52.90;24.83;;;9.50;24.00;;;;;;4993060;28;20186;-71
2022/03/23 08:17:38;;;;;;;51.60;23.77;;;10.10;22.20;;;;;;4991956;28;20226;-71
2022/03/23 08:23:19;;;;;;;42.90;24.15;;;9.70;22.50;;;;;;4986823;28;20563;-70
2022/03/23 08:25:45;;;;;;;46.47;23.02;;;10.00;21.90;;;;;;4973367;28;20253;-71
2022/03/23 08:28:14;;;;;;;47.37;24.50;;;9.80;22.60;;;;;;4986019;28;20221;-70
2022/03/23 08:30:40;;;;;;;50.20;23.67;;;9.10;23.60;;;;;;4993124;28;20253;-70
2022/03/23 08:33:07;;;;;;;34.80;22.10;;;9.20;24.20;;;;;;4991421;28;20596;-70
2022/03/23 08:35:32;;;;;;;45.97;23.67;;;9.60;23.60;;;;;;4993420;28;20547;-70
2022/03/23 08:37:59;;;;;;;52.13;24.03;;;10.20;21.80;;;;;;4993081;28;20465;-70
2022/03/23 08:40:26;;;;;;;47.20;22.20;;;10.00;21.70;;;;;;4993294;28;20440;-70
2022/03/23 08:42:52;;;;;;;40.17;23.10;;;10.00;21.60;;;;;;4992895;28;20808;-70
2022/03/23 08:45:17;;;;;;;41.60;22.93;;;11.00;20.30;;;;;;4993069;28;20413;-70
2022/03/23 08:47:45;;;;;;;39.60;21.83;;;11.00;20.10;;;;;;4993147;28;20210;-70
2022/03/23 08:50:12;;;;;;;40.17;21.87;;;10.90;20.30;;;;;;4992260;28;20420;-70
2022/03/23 08:52:41;;;;;;;44.43;22.73;;;11.10;19.60;;;;;;4992764;28;20513;-70
2022/03/23 08:55:09;;;;;;;39.13;22.90;;;11.70;19.40;;;;;;4992083;28;20936;-70
2022/03/23 08:57:36;;;;;;;39.10;23.00;;;11.70;19.10;;;;;;4992593;28;20418;-70
2022/03/23 09:00:05;;;;;;;47.50;24.07;;;12.20;18.50;;;;;;4992130;28;20868;-71
2022/03/23 09:02:31;;;;;;;48.70;24.63;;;11.60;19.10;;;;;;4992594;28;20421;-71
2022/03/23 09:04:56;;;;;;;36.13;22.00;;;12.20;18.80;;;;;;4992152;28;20420;-71
2022/03/23 09:07:22;;;;;;;42.10;22.40;;;12.60;18.00;;;;;;4992066;28;20461;-71
2022/03/23 09:09:47;;;;;;;47.80;23.70;;;12.70;18.10;;;;;;4992120;28;20661;-70
2022/03/23 09:12:13;;;;;;;47.87;24.40;;;12.50;18.50;;;;;;4992407;28;20293;-70
2022/03/23 09:14:39;;;;;;;41.27;23.20;;;12.30;18.80;;;;;;4991995;28;20200;-70
2022/03/23 09:17:05;;;;;;;45.50;23.67;;;11.70;19.80;;;;;;4992143;28;20181;-70
2022/03/23 09:19:31;;;;;;;52.23;22.30;;;11.50;19.90;;;;;;4991738;28;20464;-70
2022/03/23 09:21:59;;;;;;;45.47;23.60;;;11.80;19.80;;;;;;4994230;28;20184;-70
2022/03/23 09:24:28;;;;;;;46.63;23.90;;;12.50;19.40;;;;;;4991737;28;20423;-70
2022/03/23 09:26:54;;;;;;;48.63;22.63;;;13.60;18.00;;;;;;4992137;28;20419;-70
2022/03/23 09:29:20;;;;;;;37.20;22.57;;;13.10;18.50;;;;;;4991308;28;20447;-70
2022/03/23 09:31:46;;;;;;;47.77;24.77;;;12.70;18.90;;;;;;4991981;28;20526;-70
2022/03/23 09:34:12;;;;;;;45.37;22.80;;;13.00;18.90;;;;;;4991638;28;20541;-70
2022/03/23 09:39:22;;;;;;;50.47;24.47;;;13.30;18.00;;;;;;4990797;28;20214;-70
2022/03/23 09:41:48;;;;;;;46.20;23.47;;;13.40;17.50;;;;;;4991531;28;20431;-70
2022/03/23 09:44:15;;;;;;;40.10;22.70;;;14.00;16.90;;;;;;4991584;28;20268;-70
2022/03/23 09:46:42;;;;;;;41.90;23.57;;;13.90;17.10;;;;;;4991954;28;20416;-70
2022/03/23 09:49:08;;;;;;;38.60;21.80;;;13.70;16.90;;;;;;4991531;28;20476;-70
2022/03/23 09:51:39;;;;;;;36.60;21.93;;;13.50;15.90;;;;;;4991477;28;20428;-70
2022/03/23 09:54:05;;;;;;;34.50;22.27;;;14.10;15.10;;;;;;4990231;28;20226;-70
2022/03/23 09:56:31;;;;;;;37.53;21.93;;;13.90;15.60;;;;;;4991737;28;20818;-70
2022/03/23 09:58:56;;;;;;;57.10;24.07;;;14.50;15.30;;;;;;4991345;28;20441;-70
2022/03/23 10:01:28;;;;;;;39.97;24.23;;;14.10;16.30;;;;;;4991490;28;20189;-70
2022/03/23 10:04:20;;;;;;;40.50;23.60;;;14.60;16.20;;;;;;4991937;28;20181;-70
2022/03/23 10:07:17;;;;;;;36.70;22.67;;;15.00;14.50;;;;;;4981297;28;20502;-70
2022/03/23 10:10:21;;;;;;;45.33;23.60;;;15.70;13.20;;;;;;4991628;28;20517;-70
2022/03/23 10:13:22;;;;;;;41.20;23.47;;;16.60;12.00;;;;;;4969069;28;20800;-70
2022/03/23 10:16:38;;;;;;;43.80;23.87;;;17.30;11.60;;;;;;4937682;28;20435;-70
2022/03/23 10:19:04;;;;;;;38.70;23.83;;;16.80;12.00;;;;;;4930915;29;21071;-70
2022/03/23 10:21:35;;;;;;;39.43;22.40;;;17.00;12.00;;;;;;4946974;29;20433;-70
2022/03/23 10:24:00;;;;;;;37.63;23.13;;;17.60;10.70;;;;;;4950243;29;20184;-70
2022/03/23 10:26:27;;;;;;;37.73;22.13;;;17.10;11.20;;;;;;4950560;29;20414;-70
2022/03/23 10:28:54;;;;;;;37.23;21.53;;;17.60;11.50;;;;;;4950188;29;20224;-70
2022/03/23 10:31:23;;;;;;;39.10;23.20;;;17.40;11.50;;;;;;4950246;29;20862;-70
2022/03/23 10:34:07;;;;;;;43.87;23.00;;;17.80;10.80;;;;;;4950162;29;20862;-70
2022/03/23 10:36:33;;;;;;;43.17;23.23;;;17.50;11.90;;;;;;4950084;29;20824;-70
2022/03/23 10:39:04;;;;;;;43.20;18.83;;;18.10;10.90;;;;;;4950297;29;20540;-70
2022/03/23 10:41:30;;;;;;;35.27;20.67;;;19.00;7.70;;;;;;4930765;29;20425;-70
2022/03/23 10:43:57;;;;;;;39.13;19.20;;;18.20;9.20;;;;;;4930566;29;20515;-71
2022/03/23 10:46:23;;;;;;;38.13;19.13;;;19.30;10.30;;;;;;4931221;29;20793;-71
2022/03/23 10:49:02;;;;;;;32.23;18.73;;;19.30;7.20;;;;;;4930875;29;20998;-71
2022/03/23 10:51:35;;;;;;;32.20;18.87;;;19.50;7.90;;;;;;4934552;29;20399;-71
2022/03/23 10:54:18;;;;;;;29.30;18.13;;;19.60;7.20;;;;;;4957614;28;20918;-71
2022/03/23 10:56:44;;;;;;;43.17;17.37;;;20.40;7.10;;;;;;4975447;28;20924;-71
2022/03/23 10:59:15;;;;;;;27.90;19.17;;;20.70;5.60;;;;;;4975099;28;20538;-71
2022/03/23 11:02:00;;;;;;;34.93;19.50;;;19.90;6.70;;;;;;4975462;28;20889;-71
2022/03/23 11:04:30;;;;;;;26.70;18.20;;;18.90;7.70;;;;;;4992776;28;20981;-71
2022/03/23 11:06:58;;;;;;;34.13;17.47;;;20.50;6.60;;;;;;4994382;28;20399;-71
2022/03/23 11:18:15;;;;;;;26.80;15.30;;;23.80;4.40;;;;;;4994312;28;20494;-71
2022/03/23 11:20:48;;;;;;;20.27;14.93;;;24.40;5.50;;;;;;4994409;28;20427;-71
2022/03/23 11:23:19;;;;;;;24.03;15.50;;;23.60;2.80;;;;;;4994010;28;20423;-72
2022/03/23 11:25:50;;;;;;;20.17;13.60;;;23.10;2.60;;;;;;4993724;28;20420;-71
2022/03/23 11:28:16;;;;;;;34.20;15.00;;;23.30;3.30;;;;;;4995253;28;20888;-70
2022/03/23 11:30:43;;;;;;;22.87;15.03;;;23.60;2.40;;;;;;4994296;28;20503;-70
2022/03/23 11:33:22;;;;;;;22.83;15.23;;;23.80;3.30;;;;;;4993755;28;20409;-70
2022/03/23 11:35:50;;;;;;;22.50;16.57;;;25.10;3.10;;;;;;4993489;28;20420;-70
2022/03/23 11:38:28;;;;;;;23.60;15.83;;;23.40;3.40;;;;;;4994119;28;20931;-71
2022/03/23 11:40:55;;;;;;;21.57;14.30;;;23.50;5.20;;;;;;4994044;28;20503;-71
2022/03/23 11:43:24;;;;;;;17.87;13.60;;;23.30;2.80;;;;;;4993885;28;20412;-71
2022/03/23 11:45:51;;;;;;;24.63;14.53;;;24.90;1.80;;;;;;4993705;28;21003;-71
2022/03/23 11:48:23;;;;;;;25.23;12.73;;;25.90;3.50;;;;;;4993790;28;20464;-71
2022/03/23 11:51:16;;;;;;;27.33;12.83;;;27.20;1.00;;;;;;5001113;28;20386;-71
2022/03/23 11:54:16;;;;;;;18.67;13.10;;;27.10;1.40;;;;;;4993535;28;20408;-71
2022/03/23 11:56:58;;;;;;;17.20;12.00;;;28.00;1.00;;;;;;4993531;28;20761;-70
2022/03/23 11:59:28;;;;;;;31.13;13.47;;;26.30;1.00;;;;;;4992255;28;20436;-70
2022/03/23 12:01:56;;;;;;;16.97;12.63;;;23.70;1.60;;;;;;4993318;28;20916;-71
2022/03/23 12:04:26;;;;;;;21.20;12.80;;;24.10;1.90;;;;;;4993350;28;20789;-71
2022/03/23 12:07:07;;;;;;;22.17;13.70;;;25.70;1.00;;;;;;4993155;28;20474;-71
2022/03/23 12:09:36;;;;;;;19.60;13.77;;;24.80;1.00;;;;;;4992571;28;20994;-71
2022/03/23 12:12:10;;;;;;;18.83;12.63;;;23.80;1.00;;;;;;4993730;28;20800;-71
2022/03/23 12:14:38;;;;;;;19.00;12.47;;;24.60;2.20;;;;;;4993272;28;20424;-71
2022/03/23 12:17:31;;;;;;;18.83;11.70;;;24.70;1.20;;;;;;4997614;28;20417;-71
2022/03/23 12:20:09;;;;;;;22.53;12.47;;;25.10;1.40;;;;;;4993424;28;20472;-71
2022/03/23 12:22:34;;;;;;;21.00;12.50;;;27.90;1.00;;;;;;4993426;28;20436;-71
2022/03/23 12:25:19;;;;;;;20.87;11.23;;;29.20;1.00;;;;;;4992968;28;20912;-71
2022/03/23 12:27:58;;;;;;;21.77;12.33;;;29.60;1.00;;;;;;4993051;28;20600;-71
2022/03/23 12:30:24;;;;;;;20.73;11.40;;;27.80;1.00;;;;;;4992702;28;20420;-71
2022/03/23 12:32:50;;;;;;;14.23;11.20;;;26.90;1.00;;;;;;4992779;28;20433;-71
2022/03/23 12:35:27;;;;;;;15.43;11.30;;;26.90;1.00;;;;;;4992750;28;20177;-71
2022/03/23 12:37:53;;;;;;;16.53;11.27;;;27.30;1.00;;;;;;4993121;28;20432;-71
2022/03/23 12:40:19;;;;;;;15.47;11.00;;;28.70;1.00;;;;;;4992544;28;20444;-71
2022/03/23 12:42:46;;;;;;;15.13;10.73;;;29.90;1.00;;;;;;4992647;28;20186;-71
2022/03/23 12:45:22;;;;;;;24.60;11.60;;;28.60;1.00;;;;;;4992756;28;20939;-71
2022/03/23 12:57:49;;;;;;;19.50;11.43;;;27.40;1.00;;;;;;4992839;28;20908;-71
2022/03/23 12:59:20;;;;;;;18.03;11.90;;;29.40;1.00;;;;;;4992473;28;20430;-71
2022/03/23 13:01:47;;;;;;;20.57;12.20;;;28.70;1.00;;;;;;4992401;28;20858;-71
2022/03/23 13:04:44;;;;;;;15.93;12.60;;;29.80;1.00;;;;;;4991698;28;20837;-71
2022/03/23 13:07:28;;;;;;;19.10;11.77;;;30.40;1.00;;;;;;4992300;28;20425;-71
2022/03/23 13:10:07;;;;;;;16.30;11.50;;;30.10;1.00;;;;;;4992340;28;20840;-71
2022/03/23 13:12:33;;;;;;;20.80;11.27;;;31.30;1.00;;;;;;4992614;28;20404;-71
2022/03/23 13:14:59;;;;;;;22.07;12.60;;;31.70;1.00;;;;;;4990995;28;21094;-71
2022/03/23 13:17:26;;;;;;;18.63;11.20;;;31.50;1.00;;;;;;4992192;28;20809;-71